createdAt,value
2019-06-23T00:00:44.977Z,2.90
2019-06-23T00:03:46.248Z,2.67
2019-06-23T00:06:47.494Z,2.80
2019-06-23T00:09:48.866Z,2.95
2019-06-23T00:12:50.114Z,3.05
2019-06-23T00:15:51.392Z,2.83
2019-06-23T00:18:52.649Z,2.60
2019-06-23T00:21:53.914Z,2.60
2019-06-23T00:24:55.146Z,2.70
2019-06-23T00:27:56.446Z,2.85
2019-06-23T00:31:02.344Z,2.80
2019-06-23T00:34:03.644Z,2.30
2019-06-23T00:37:04.889Z,2.47
2019-06-23T00:40:07.042Z,2.67
2019-06-23T00:43:08.286Z,2.58
2019-06-23T00:46:09.566Z,2.70
2019-06-23T00:49:10.803Z,2.70
2019-06-23T00:52:12.183Z,2.40
2019-06-23T00:55:14.327Z,2.50
2019-06-23T00:58:15.599Z,2.22
2019-06-23T01:01:18.856Z,2.50
2019-06-23T01:04:20.226Z,2.70
2019-06-23T01:07:21.461Z,2.25
2019-06-23T01:10:22.947Z,2.02
2019-06-23T01:13:24.293Z,2.40
2019-06-23T01:16:25.605Z,2.50
2019-06-23T01:19:27.481Z,2.50
2019-06-23T01:22:28.832Z,2.27
2019-06-23T01:25:30.069Z,2.10
2019-06-23T01:28:31.453Z,2.10
2019-06-23T01:31:32.688Z,2.20
2019-06-23T01:34:33.955Z,2.45
2019-06-23T01:37:35.504Z,2.50
2019-06-23T01:40:36.751Z,2.55
2019-06-23T01:43:38.007Z,2.40
2019-06-23T01:46:39.393Z,2.10
2019-06-23T01:49:40.654Z,2.20
2019-06-23T01:52:41.949Z,2.50
2019-06-23T01:55:43.173Z,2.30
2019-06-23T01:58:44.717Z,2.25
2019-06-23T02:01:45.919Z,2.00
2019-06-23T02:04:47.226Z,1.90
2019-06-23T02:07:48.525Z,2.00
2019-06-23T02:10:49.738Z,2.30
2019-06-23T02:13:51.091Z,1.87
2019-06-23T02:16:52.462Z,2.22
2019-06-23T02:19:55.638Z,2.40
2019-06-23T02:22:58.881Z,1.95
2019-06-23T02:26:00.228Z,2.45
2019-06-23T02:29:01.526Z,1.92
2019-06-23T02:32:03.580Z,2.30
2019-06-23T02:35:05.691Z,2.17
2019-06-23T02:38:07.086Z,2.20
2019-06-23T02:41:08.514Z,2.10
2019-06-23T02:44:09.973Z,2.20
2019-06-23T02:47:16.175Z,2.33
2019-06-23T02:53:45.560Z,2.20
2019-06-23T02:56:48.748Z,2.30
2019-06-23T02:59:50.030Z,1.92
2019-06-23T03:02:51.275Z,1.85
2019-06-23T03:05:52.647Z,1.82
2019-06-23T03:08:53.973Z,2.20
2019-06-23T03:11:55.441Z,1.80
2019-06-23T03:14:56.681Z,1.90
2019-06-23T03:17:58.160Z,2.10
2019-06-23T03:20:59.403Z,1.90
2019-06-23T03:24:00.679Z,1.98
2019-06-23T03:27:02.117Z,2.15
2019-06-23T03:30:25.182Z,2.00
2019-06-23T03:33:27.262Z,1.80
2019-06-23T03:36:28.768Z,1.90
2019-06-23T03:39:30.503Z,1.90
2019-06-23T03:42:32.364Z,2.00
2019-06-23T03:45:33.834Z,2.00
2019-06-23T03:48:35.101Z,1.72
2019-06-23T03:51:36.463Z,1.80
2019-06-23T03:54:38.095Z,2.12
2019-06-23T03:57:39.387Z,1.92
2019-06-23T04:00:40.745Z,1.87
2019-06-23T04:03:42.059Z,2.08
2019-06-23T04:06:43.464Z,1.82
2019-06-23T04:09:44.909Z,1.72
2019-06-23T04:12:46.217Z,1.70
2019-06-23T04:15:47.475Z,1.72
2019-06-23T04:18:48.789Z,2.22
2019-06-23T04:21:50.111Z,2.20
2019-06-23T04:24:51.387Z,1.90
2019-06-23T04:27:52.624Z,2.20
2019-06-23T04:30:54.041Z,1.62
2019-06-23T04:33:55.275Z,1.87
2019-06-23T04:36:56.529Z,1.57
2019-06-23T04:39:57.767Z,1.80
2019-06-23T04:42:59.088Z,1.57
2019-06-23T04:46:00.347Z,1.30
2019-06-23T04:49:01.627Z,1.60
2019-06-23T04:52:02.877Z,1.45
2019-06-23T04:55:07.473Z,1.85
2019-06-23T04:58:08.709Z,1.70
2019-06-23T05:01:10.020Z,1.85
2019-06-23T05:04:11.266Z,1.57
2019-06-23T05:07:12.569Z,1.70
2019-06-23T05:10:15.003Z,1.50
2019-06-23T05:13:16.533Z,1.80
2019-06-23T05:16:17.779Z,1.85
2019-06-23T05:19:19.040Z,1.60
2019-06-23T05:22:20.822Z,1.70
2019-06-23T05:25:22.223Z,2.05
2019-06-23T05:28:23.540Z,1.85
2019-06-23T05:31:24.818Z,1.70
2019-06-23T05:34:26.060Z,1.70
2019-06-23T05:37:27.328Z,1.70
2019-06-23T05:40:28.575Z,1.72
2019-06-23T05:43:30.039Z,1.57
2019-06-23T05:46:31.265Z,1.98
2019-06-23T05:49:32.841Z,1.80
2019-06-23T05:52:34.193Z,1.70
2019-06-23T05:55:35.491Z,1.60
2019-06-23T05:58:45.960Z,1.80
2019-06-23T06:01:39.822Z,1.77
2019-06-23T06:04:41.121Z,1.85
2019-06-23T06:07:42.373Z,1.82
2019-06-23T06:10:43.610Z,1.52
2019-06-23T06:13:44.909Z,1.90
2019-06-23T06:16:46.258Z,1.50
2019-06-23T06:19:47.554Z,1.80
2019-06-23T06:22:48.897Z,1.70
2019-06-23T06:25:50.158Z,1.55
2019-06-23T06:28:51.523Z,1.60
2019-06-23T06:31:52.787Z,1.52
2019-06-23T06:34:54.048Z,1.70
2019-06-23T06:37:55.903Z,1.85
2019-06-23T06:40:57.241Z,1.67
2019-06-23T06:43:58.610Z,1.60
2019-06-23T06:46:59.862Z,1.60
2019-06-23T06:50:01.438Z,1.50
2019-06-23T06:53:03.045Z,2.70
2019-06-23T06:56:04.301Z,1.70
2019-06-23T06:59:05.717Z,1.77
2019-06-23T07:02:07.104Z,1.50
2019-06-23T07:05:08.644Z,1.60
2019-06-23T07:08:10.058Z,1.80
2019-06-23T07:11:11.294Z,2.40
2019-06-23T07:14:12.715Z,1.90
2019-06-23T07:17:13.967Z,1.80
2019-06-23T07:20:15.382Z,1.80
2019-06-23T07:23:16.625Z,1.52
2019-06-23T07:26:17.896Z,1.82
2019-06-23T07:29:19.196Z,2.20
2019-06-23T07:32:21.067Z,2.08
2019-06-23T07:35:22.545Z,1.90
2019-06-23T07:38:23.869Z,1.82
2019-06-23T07:41:25.758Z,1.95
2019-06-23T07:44:27.065Z,2.25
2019-06-23T07:47:28.533Z,3.08
2019-06-23T07:50:29.953Z,2.25
2019-06-23T07:53:31.254Z,2.22
2019-06-23T07:56:32.554Z,2.35
2019-06-23T07:59:33.795Z,2.22
2019-06-23T08:02:35.221Z,2.62
2019-06-23T08:05:36.685Z,1.87
2019-06-23T08:08:38.119Z,2.00
2019-06-23T08:11:39.973Z,2.10
2019-06-23T08:14:41.330Z,2.00
2019-06-23T08:17:42.593Z,2.10
2019-06-23T08:20:44.002Z,1.90
2019-06-23T08:23:45.250Z,2.00
2019-06-23T08:26:46.555Z,2.05
2019-06-23T08:29:47.785Z,2.27
2019-06-23T08:32:49.071Z,2.30
2019-06-23T08:35:50.375Z,1.92
2019-06-23T08:38:51.783Z,2.05
2019-06-23T08:41:53.261Z,2.25
2019-06-23T08:44:54.675Z,1.98
2019-06-23T08:47:55.893Z,2.22
2019-06-23T08:50:57.307Z,1.72
2019-06-23T08:53:58.671Z,2.00
2019-06-23T08:57:00.181Z,2.20
2019-06-23T09:00:02.091Z,1.98
2019-06-23T09:03:03.870Z,2.17
2019-06-23T09:06:05.315Z,2.10
2019-06-23T09:09:07.124Z,2.22
2019-06-23T09:12:08.494Z,2.17
2019-06-23T09:15:10.290Z,2.20
2019-06-23T09:18:11.625Z,2.02
2019-06-23T09:21:13.033Z,2.02
2019-06-23T09:24:14.459Z,1.82
2019-06-23T09:27:15.966Z,2.08
2019-06-23T09:30:38.743Z,2.30
2019-06-23T09:33:40.127Z,2.15
2019-06-23T09:36:42.821Z,2.20
2019-06-23T09:39:45.025Z,1.98
2019-06-23T09:42:46.306Z,2.33
2019-06-23T09:45:48.491Z,2.10
2019-06-23T09:48:50.515Z,2.10
2019-06-23T09:51:52.202Z,2.00
2019-06-23T09:54:53.447Z,2.15
2019-06-23T09:57:55.093Z,1.85
2019-06-23T10:00:56.939Z,2.15
2019-06-23T10:03:58.741Z,2.25
2019-06-23T10:07:00.310Z,1.85
2019-06-23T10:10:02.212Z,2.10
2019-06-23T10:13:03.832Z,2.30
2019-06-23T10:16:05.267Z,2.05
2019-06-23T10:19:06.650Z,2.17
2019-06-23T10:22:08.222Z,2.08
2019-06-23T10:25:09.744Z,1.98
2019-06-23T10:28:11.043Z,2.20
2019-06-23T10:31:12.815Z,2.12
2019-06-23T10:34:16.010Z,1.82
2019-06-23T10:37:18.421Z,2.12
2019-06-23T10:40:20.196Z,2.25
2019-06-23T10:43:22.264Z,2.10
2019-06-23T10:46:24.234Z,1.82
2019-06-23T10:49:26.802Z,2.02
2019-06-23T10:52:30.256Z,2.47
2019-06-23T10:55:32.995Z,1.90
2019-06-23T10:58:34.687Z,1.98
2019-06-23T11:01:35.938Z,2.20
2019-06-23T11:04:38.479Z,2.30
2019-06-23T11:07:42.014Z,1.98
2019-06-23T11:10:47.715Z,2.10
2019-06-23T11:13:51.562Z,2.55
2019-06-23T11:16:53.407Z,2.55
2019-06-23T11:19:55.385Z,1.80
2019-06-23T11:22:57.614Z,2.10
2019-06-23T11:25:59.054Z,1.90
2019-06-23T11:29:00.736Z,1.95
2019-06-23T11:32:02.634Z,2.10
2019-06-23T11:35:05.746Z,2.12
2019-06-23T11:38:08.262Z,2.00
2019-06-23T11:41:10.365Z,2.05
2019-06-23T11:44:12.797Z,1.90
2019-06-23T11:47:14.710Z,1.70
2019-06-23T11:50:16.265Z,1.80
2019-06-23T11:53:17.502Z,1.90
2019-06-23T11:56:19.831Z,1.72
2019-06-23T11:59:21.367Z,1.70
2019-06-23T12:02:22.570Z,1.70
2019-06-23T12:05:24.526Z,2.05
2019-06-23T12:08:25.967Z,1.82
2019-06-23T12:11:28.334Z,2.35
2019-06-23T12:14:29.600Z,1.70
2019-06-23T12:17:31.475Z,2.15
2019-06-23T12:20:32.894Z,1.62
2019-06-23T12:23:34.991Z,1.60
2019-06-23T12:26:36.230Z,1.87
2019-06-23T12:29:37.745Z,1.60
2019-06-23T12:32:39.923Z,1.80
2019-06-23T12:35:42.480Z,1.70
2019-06-23T12:38:44.907Z,1.80
2019-06-23T12:41:47.825Z,1.50
2019-06-23T12:44:50.461Z,2.10
2019-06-23T12:47:54.778Z,1.40
2019-06-23T12:50:57.380Z,1.47
2019-06-23T12:54:00.725Z,1.72
2019-06-23T12:57:02.308Z,1.40
2019-06-23T13:00:06.515Z,1.90
2019-06-23T13:03:08.011Z,1.70
2019-06-23T13:06:09.314Z,1.90
2019-06-23T13:09:11.643Z,2.50
2019-06-23T13:12:13.267Z,3.02
2019-06-23T13:15:15.738Z,2.17
2019-06-23T13:18:17.696Z,1.67
2019-06-23T13:21:19.637Z,1.70
2019-06-23T13:24:22.100Z,1.87
2019-06-23T13:27:23.680Z,1.90
2019-06-23T13:30:25.789Z,1.55
2019-06-23T13:33:27.632Z,1.80
2019-06-23T13:36:30.615Z,1.52
2019-06-23T13:39:32.363Z,1.80
2019-06-23T13:42:35.260Z,1.55
2019-06-23T13:45:36.600Z,2.00
2019-06-23T13:48:39.087Z,1.90
2019-06-23T13:51:41.053Z,1.62
2019-06-23T13:54:43.047Z,1.92
2019-06-23T13:57:45.628Z,2.37
2019-06-23T14:00:47.369Z,1.85
2019-06-23T14:03:49.384Z,1.57
2019-06-23T14:06:52.217Z,1.90
2019-06-23T14:09:55.540Z,1.60
2019-06-23T14:12:58.329Z,1.70
2019-06-23T14:16:00.878Z,1.85
2019-06-23T14:19:02.996Z,1.70
2019-06-23T14:22:05.427Z,1.67
2019-06-23T14:25:08.797Z,1.55
2019-06-23T14:28:10.244Z,1.50
2019-06-23T14:31:12.660Z,1.80
2019-06-23T14:34:13.991Z,2.42
2019-06-23T14:37:15.287Z,9.80
2019-06-23T14:40:17.526Z,2.12
2019-06-23T14:43:18.787Z,2.00
2019-06-23T14:46:20.050Z,1.98
2019-06-23T14:49:21.559Z,2.10
2019-06-23T14:52:23.213Z,2.05
2019-06-23T14:55:26.338Z,1.90
2019-06-23T14:58:27.554Z,1.75
2019-06-23T15:01:29.054Z,2.33
2019-06-23T15:04:31.137Z,1.70
2019-06-23T15:07:32.541Z,1.60
2019-06-23T15:10:34.263Z,1.80
2019-06-23T15:13:35.564Z,1.72
2019-06-23T15:16:36.923Z,1.92
2019-06-23T15:19:39.514Z,1.70
2019-06-23T15:22:41.556Z,1.85
2019-06-23T15:25:43.142Z,1.98
2019-06-23T15:28:44.405Z,2.10
2019-06-23T15:31:45.685Z,2.05
2019-06-23T15:34:46.959Z,2.00
2019-06-23T15:37:48.251Z,1.92
2019-06-23T15:40:49.738Z,2.50
2019-06-23T15:43:51.331Z,2.45
2019-06-23T15:46:52.622Z,2.90
2019-06-23T15:49:54.176Z,2.30
2019-06-23T15:52:56.132Z,1.98
2019-06-23T15:55:57.575Z,2.42
2019-06-23T15:58:58.959Z,2.40
2019-06-23T16:02:00.509Z,2.62
2019-06-23T16:05:01.963Z,2.50
2019-06-23T16:08:03.250Z,2.60
2019-06-23T16:11:05.190Z,2.50
2019-06-23T16:14:06.481Z,2.20
2019-06-23T16:17:08.327Z,1.98
2019-06-23T16:20:10.281Z,2.80
2019-06-23T16:23:11.567Z,3.17
2019-06-23T16:26:12.846Z,2.52
2019-06-23T16:29:14.301Z,2.52
2019-06-23T16:32:16.254Z,2.30
2019-06-23T16:35:17.518Z,2.17
2019-06-23T16:38:19.978Z,2.60
2019-06-23T16:41:22.443Z,2.65
2019-06-23T16:44:24.432Z,2.45
2019-06-23T16:47:26.156Z,2.58
2019-06-23T16:50:29.034Z,2.40
2019-06-23T16:53:31.668Z,2.47
2019-06-23T16:56:36.296Z,2.85
2019-06-23T16:59:40.322Z,2.27
2019-06-23T17:02:42.993Z,2.80
2019-06-23T17:05:44.784Z,2.58
2019-06-23T17:08:46.904Z,2.65
2019-06-23T17:11:48.582Z,2.80
2019-06-23T17:14:50.734Z,2.70
2019-06-23T17:17:53.178Z,2.40
2019-06-23T17:20:55.193Z,2.58
2019-06-23T17:23:56.870Z,2.50
2019-06-23T17:26:58.512Z,2.10
2019-06-23T17:29:59.969Z,2.10
2019-06-23T17:33:01.670Z,2.75
2019-06-23T17:36:03.285Z,2.90
2019-06-23T17:39:06.281Z,2.17
2019-06-23T17:42:08.414Z,2.08
2019-06-23T17:45:12.461Z,1.98
2019-06-23T17:48:16.017Z,2.00
2019-06-23T17:51:18.859Z,1.85
2019-06-23T17:54:20.738Z,2.77
2019-06-23T18:00:25.346Z,2.52
2019-06-23T18:03:27.322Z,2.40
2019-06-23T18:06:29.235Z,2.42
2019-06-23T18:09:31.111Z,2.62
2019-06-23T18:12:33.160Z,2.60
2019-06-23T18:15:34.574Z,3.27
2019-06-23T18:18:35.939Z,2.90
2019-06-23T18:21:38.683Z,2.90
2019-06-23T18:24:42.189Z,3.20
2019-06-23T18:27:44.341Z,2.87
2019-06-23T18:30:50.701Z,2.90
2019-06-23T18:33:52.957Z,3.00
2019-06-23T18:36:55.617Z,3.00
2019-06-23T18:39:58.152Z,2.80
2019-06-23T18:43:01.522Z,2.95
2019-06-23T18:46:05.654Z,3.20
2019-06-23T18:49:08.425Z,3.00
2019-06-23T18:52:10.481Z,3.40
2019-06-23T18:55:14.671Z,3.00
2019-06-23T18:58:18.242Z,3.37
2019-06-23T19:01:20.261Z,3.55
2019-06-23T19:04:22.297Z,4.20
2019-06-23T19:07:24.919Z,3.75
2019-06-23T19:10:27.000Z,4.28
2019-06-23T19:13:28.938Z,4.28
2019-06-23T19:16:30.648Z,3.77
2019-06-23T19:19:32.237Z,4.60
2019-06-23T19:22:33.807Z,4.53
2019-06-23T19:25:36.005Z,5.22
2019-06-23T19:28:37.603Z,4.50
2019-06-23T19:31:41.476Z,5.03
2019-06-23T19:34:45.109Z,5.00
2019-06-23T19:37:47.003Z,4.47
2019-06-23T19:40:57.099Z,5.08
2019-06-23T19:44:09.074Z,4.78
2019-06-23T19:46:59.173Z,5.20
2019-06-23T19:50:00.729Z,5.80
2019-06-23T19:53:03.121Z,5.62
2019-06-23T19:56:06.218Z,5.10
2019-06-23T19:59:08.077Z,5.17
2019-06-23T20:02:09.611Z,5.75
2019-06-23T20:05:11.946Z,5.10
2019-06-23T20:08:13.692Z,5.47
2019-06-23T20:11:15.690Z,5.42
2019-06-23T20:14:26.681Z,5.50
2019-06-23T20:17:21.855Z,6.80
2019-06-23T20:20:23.942Z,7.25
2019-06-23T20:23:27.193Z,7.33
2019-06-23T20:26:29.052Z,8.18
2019-06-23T20:29:30.660Z,8.58
2019-06-23T20:32:32.394Z,8.13
2019-06-23T20:35:34.074Z,8.50
2019-06-23T20:38:35.344Z,7.92
2019-06-23T20:41:38.409Z,7.22
2019-06-23T20:44:42.493Z,7.62
2019-06-23T20:47:44.198Z,7.70
2019-06-23T20:50:46.968Z,7.65
2019-06-23T20:53:49.164Z,6.47
2019-06-23T20:56:51.420Z,6.35
2019-06-23T20:59:53.139Z,6.25
2019-06-23T21:02:56.656Z,5.85
2019-06-23T21:05:57.622Z,6.05
2019-06-23T21:08:58.981Z,6.10
2019-06-23T21:12:01.533Z,5.45
2019-06-23T21:15:05.304Z,5.83
2019-06-23T21:18:26.897Z,5.65
2019-06-23T21:21:28.210Z,6.00
2019-06-23T21:24:29.657Z,5.92
2019-06-23T21:27:30.908Z,5.70
2019-06-23T21:30:32.388Z,5.28
2019-06-23T21:33:33.623Z,5.53
2019-06-23T21:36:35.880Z,5.47
2019-06-23T21:39:38.229Z,5.90
2019-06-23T21:42:40.289Z,5.42
2019-06-23T21:45:42.079Z,5.37
2019-06-23T21:48:43.517Z,5.50
2019-06-23T21:51:45.007Z,5.75
2019-06-23T21:54:47.480Z,5.67
2019-06-23T21:57:49.175Z,5.42
2019-06-23T22:00:57.742Z,5.55
2019-06-23T22:03:59.694Z,5.72
2019-06-23T22:07:01.292Z,5.70
2019-06-23T22:10:04.103Z,5.70
2019-06-23T22:13:05.883Z,5.65
2019-06-23T22:16:07.649Z,5.80
2019-06-23T22:19:08.961Z,5.87
2019-06-23T22:22:10.328Z,6.12
2019-06-23T22:25:11.867Z,5.85
2019-06-23T22:28:13.229Z,5.65
2019-06-23T22:31:14.499Z,6.47
2019-06-23T22:34:16.002Z,6.40
2019-06-23T22:37:17.411Z,6.40
2019-06-23T22:40:18.914Z,5.83
2019-06-23T22:43:20.382Z,5.70
2019-06-23T22:46:21.737Z,6.15
2019-06-23T22:49:23.009Z,5.70
2019-06-23T22:52:24.732Z,5.92
2019-06-23T22:55:26.169Z,5.58
2019-06-23T22:58:27.713Z,5.87
2019-06-23T23:01:29.030Z,5.78
2019-06-23T23:04:30.242Z,6.20
2019-06-23T23:07:31.506Z,6.10
2019-06-23T23:10:32.745Z,6.15
2019-06-23T23:13:34.005Z,6.62
2019-06-23T23:16:35.250Z,6.50
2019-06-23T23:19:36.773Z,6.40
2019-06-23T23:22:38.009Z,6.65
2019-06-23T23:25:39.377Z,7.70
2019-06-23T23:28:40.615Z,7.22
2019-06-23T23:31:41.876Z,7.97
2019-06-23T23:34:43.114Z,8.05
2019-06-23T23:37:44.505Z,7.78
2019-06-23T23:40:45.749Z,7.35
2019-06-23T23:43:47.130Z,7.42
2019-06-23T23:46:48.341Z,7.55
2019-06-23T23:49:49.663Z,7.75
2019-06-23T23:52:50.871Z,7.53
2019-06-23T23:55:52.199Z,8.23
2019-06-23T23:58:53.429Z,7.92
